Time;durP1;ratioP1;P1;durP2;ratioP2;P2;SDS_P1;SDS_P2;PMS_P1;PMS_P2;Temp;Humidity;BMP_temperature;BMP_pressure;BME280_temperature;BME280_humidity;BME280_pressure;Samples;Min_cycle;Max_cycle;Signal;HPM_P1;HPM_P2
2023/11/10 00:00:00;;;;;;;2.07;1.00;;;8.00;99.90;;;;;;5090798;28;20629;-75
2023/11/10 00:02:27;;;;;;;1.07;0.97;;;8.00;99.90;;;;;;5090284;28;20966;-75
2023/11/10 00:04:54;;;;;;;1.17;1.10;;;8.00;99.90;;;;;;5090776;28;20671;-75
2023/11/10 00:07:23;;;;;;;0.90;0.80;;;8.00;99.90;;;;;;5090062;28;20731;-75
2023/11/10 00:09:49;;;;;;;0.70;0.70;;;7.80;99.90;;;;;;5082430;28;20660;-75
2023/11/10 00:12:18;;;;;;;0.97;0.70;;;7.90;99.90;;;;;;5090730;28;21191;-75
2023/11/10 00:14:46;;;;;;;1.03;0.80;;;7.90;99.90;;;;;;5090235;28;20617;-75
2023/11/10 00:17:13;;;;;;;0.53;0.53;;;8.00;99.90;;;;;;5089661;28;20629;-75
2023/11/10 00:19:42;;;;;;;1.20;1.10;;;7.90;99.90;;;;;;5089763;28;21181;-75
2023/11/10 00:22:10;;;;;;;0.67;0.67;;;8.00;99.90;;;;;;5090122;28;20664;-75
2023/11/10 00:24:40;;;;;;;1.37;1.03;;;8.00;99.90;;;;;;5089268;28;20652;-75
2023/11/10 00:27:09;;;;;;;1.07;0.97;;;7.90;99.90;;;;;;5081905;28;20955;-75
2023/11/10 00:29:40;;;;;;;2.07;1.10;;;7.90;99.90;;;;;;5089490;28;20701;-75
2023/11/10 00:32:08;;;;;;;1.57;0.97;;;7.90;99.90;;;;;;5090120;28;20632;-75
2023/11/10 00:34:34;;;;;;;0.63;0.63;;;7.90;99.90;;;;;;5089990;28;20664;-75
2023/11/10 00:37:01;;;;;;;1.23;0.67;;;8.00;99.90;;;;;;5090190;28;20629;-75
2023/11/10 00:39:29;;;;;;;0.60;0.60;;;7.90;99.90;;;;;;5089614;28;21169;-75
2023/11/10 00:41:57;;;;;;;0.77;0.70;;;7.90;99.90;;;;;;5089724;28;20648;-75
2023/11/10 00:44:24;;;;;;;0.53;0.53;;;7.90;99.90;;;;;;5081785;28;20613;-75
2023/11/10 00:46:52;;;;;;;0.60;0.60;;;7.80;99.90;;;;;;5089561;28;20636;-75
2023/11/10 00:49:18;;;;;;;1.60;1.20;;;7.80;99.90;;;;;;5088958;28;20609;-75
2023/11/10 00:51:45;;;;;;;1.37;0.83;;;7.80;99.90;;;;;;5089547;28;21194;-75
2023/11/10 00:54:12;;;;;;;0.90;0.90;;;7.80;99.90;;;;;;5089645;28;20623;-75
2023/11/10 00:56:39;;;;;;;0.87;0.87;;;7.80;99.90;;;;;;5088716;28;20623;-75
2023/11/10 00:59:07;;;;;;;1.63;0.90;;;7.90;99.90;;;;;;5088961;28;21181;-75
2023/11/10 01:01:35;;;;;;;0.80;0.80;;;7.80;99.90;;;;;;5089424;28;21081;-75
2023/11/10 01:04:02;;;;;;;1.13;0.87;;;7.80;99.90;;;;;;5088676;28;20617;-75
2023/11/10 01:06:29;;;;;;;0.85;0.80;;;7.60;99.90;;;;;;5088824;28;20632;-75
2023/11/10 01:08:57;;;;;;;0.80;0.80;;;7.60;99.90;;;;;;5088980;28;20619;-75
2023/11/10 01:11:24;;;;;;;0.70;0.70;;;7.40;99.90;;;;;;5088769;28;20686;-75
2023/11/10 01:13:50;;;;;;;0.50;0.50;;;7.40;99.90;;;;;;5089079;28;21127;-75
2023/11/10 01:16:19;;;;;;;0.88;0.60;;;7.40;99.90;;;;;;5089250;28;20719;-75
2023/11/10 01:18:46;;;;;;;0.38;0.38;;;7.40;99.90;;;;;;5088502;28;20195;-75
2023/11/10 01:21:12;;;;;;;0.47;0.47;;;7.40;99.90;;;;;;5089070;28;20723;-75
2023/11/10 01:23:39;;;;;;;0.63;0.45;;;7.40;99.90;;;;;;5088584;28;20660;-75
2023/11/10 01:26:07;;;;;;;0.43;0.40;;;7.40;99.90;;;;;;5088968;28;20287;-75
2023/11/10 01:28:34;;;;;;;0.47;0.47;;;7.40;99.90;;;;;;5088640;28;20206;-75
2023/11/10 01:31:01;;;;;;;0.50;0.50;;;7.30;99.90;;;;;;5088890;28;20203;-75
2023/11/10 01:33:29;;;;;;;0.50;0.50;;;7.40;99.90;;;;;;5088902;28;20252;-75
2023/11/10 01:35:56;;;;;;;0.80;0.50;;;7.40;99.90;;;;;;5088589;28;20736;-75
2023/11/10 01:38:23;;;;;;;0.40;0.30;;;7.40;99.90;;;;;;5087926;28;20203;-75
2023/11/10 01:40:50;;;;;;;0.60;0.40;;;7.40;99.90;;;;;;5089003;28;20191;-75
2023/11/10 01:43:17;;;;;;;0.80;0.63;;;7.30;99.90;;;;;;5088652;28;20247;-75
2023/11/10 01:45:45;;;;;;;0.40;0.30;;;7.30;99.90;;;;;;5088592;28;20724;-75
2023/11/10 01:48:13;;;;;;;0.60;0.60;;;7.40;99.90;;;;;;5087822;28;20631;-75
2023/11/10 01:50:43;;;;;;;0.40;0.30;;;7.30;99.90;;;;;;5088343;28;20199;-75
2023/11/10 01:53:11;;;;;;;0.50;0.50;;;7.30;99.90;;;;;;5088599;28;20227;-75
2023/11/10 01:55:39;;;;;;;0.60;0.60;;;7.30;99.90;;;;;;5088610;28;20618;-75
2023/11/10 01:58:06;;;;;;;0.52;0.52;;;7.30;99.90;;;;;;5087858;28;20631;-75
2023/11/10 02:00:33;;;;;;;0.50;0.50;;;7.30;99.90;;;;;;5088549;28;20199;-74
2023/11/10 02:03:03;;;;;;;0.50;0.37;;;7.30;99.90;;;;;;5088463;28;20221;-75
2023/11/10 02:05:30;;;;;;;0.80;0.73;;;7.40;99.90;;;;;;5086718;28;20625;-73
2023/11/10 02:07:58;;;;;;;0.50;0.50;;;7.30;99.90;;;;;;5087038;28;20664;-74
2023/11/10 02:10:26;;;;;;;0.50;0.50;;;7.40;99.90;;;;;;5087984;28;20227;-74
2023/11/10 02:12:55;;;;;;;1.00;0.90;;;7.40;99.90;;;;;;5088020;28;20706;-75
2023/11/10 02:15:24;;;;;;;0.70;0.63;;;7.40;99.90;;;;;;5087696;28;20214;-74
2023/11/10 02:17:53;;;;;;;0.77;0.77;;;7.40;99.90;;;;;;5086918;28;20199;-75
2023/11/10 02:20:21;;;;;;;0.60;0.60;;;7.50;99.90;;;;;;5087930;28;20931;-74
2023/11/10 02:22:50;;;;;;;0.80;0.80;;;7.50;99.90;;;;;;5087929;28;20231;-74
2023/11/10 02:25:20;;;;;;;0.60;0.60;;;7.60;99.90;;;;;;5087810;28;20608;-74
2023/11/10 02:27:50;;;;;;;0.90;0.60;;;7.50;99.90;;;;;;5087150;28;20762;-74
2023/11/10 02:30:18;;;;;;;1.33;0.70;;;7.50;99.90;;;;;;5087759;28;20616;-74
2023/11/10 02:32:46;;;;;;;0.50;0.50;;;7.60;99.90;;;;;;5088124;28;20627;-74
2023/11/10 02:35:16;;;;;;;0.60;0.50;;;7.60;99.90;;;;;;5079637;28;20248;-74
2023/11/10 02:37:43;;;;;;;1.00;1.00;;;7.60;99.90;;;;;;5087235;28;20302;-75
2023/11/10 02:40:11;;;;;;;0.75;0.60;;;7.60;99.90;;;;;;5088109;28;21139;-74
2023/11/10 02:42:40;;;;;;;0.60;0.60;;;7.70;99.90;;;;;;5087397;28;20306;-74
2023/11/10 02:45:09;;;;;;;1.13;0.90;;;7.60;99.90;;;;;;5086832;28;20203;-74
2023/11/10 02:47:37;;;;;;;0.75;0.52;;;7.60;99.90;;;;;;5087105;28;20668;-75
2023/11/10 02:50:05;;;;;;;0.98;0.52;;;7.50;99.90;;;;;;5087608;28;20199;-74
2023/11/10 02:52:33;;;;;;;0.70;0.40;;;7.50;99.90;;;;;;5087330;28;20694;-75
2023/11/10 02:55:00;;;;;;;1.25;0.70;;;7.60;99.90;;;;;;5087567;28;20628;-74
2023/11/10 02:57:27;;;;;;;0.55;0.55;;;7.60;99.90;;;;;;5086453;28;20590;-74
2023/11/10 02:59:55;;;;;;;0.80;0.80;;;7.60;99.90;;;;;;5087435;28;20249;-74
2023/11/10 03:02:22;;;;;;;0.70;0.70;;;7.60;99.90;;;;;;5087032;28;20692;-74
2023/11/10 03:04:49;;;;;;;0.60;0.60;;;7.60;99.90;;;;;;5087539;28;21380;-74
2023/11/10 03:07:16;;;;;;;0.52;0.52;;;7.50;99.90;;;;;;5087099;28;20270;-75
2023/11/10 03:09:44;;;;;;;0.95;0.80;;;7.50;99.90;;;;;;5087321;28;20199;-74
2023/11/10 03:12:10;;;;;;;0.70;0.50;;;7.50;99.90;;;;;;5086717;28;20191;-74
2023/11/10 03:14:41;;;;;;;0.40;0.35;;;7.50;99.90;;;;;;5086706;28;20238;-75
2023/11/10 03:17:11;;;;;;;0.60;0.60;;;7.40;99.90;;;;;;5087057;28;20203;-74
2023/11/10 03:19:38;;;;;;;0.65;0.60;;;7.40;99.90;;;;;;5086189;28;20198;-74
2023/11/10 03:22:05;;;;;;;0.40;0.40;;;7.30;99.90;;;;;;5086783;28;20191;-74
2023/11/10 03:24:33;;;;;;;0.50;0.30;;;7.30;99.90;;;;;;5085685;28;20199;-74
2023/11/10 03:27:01;;;;;;;0.40;0.40;;;7.30;99.90;;;;;;5086849;28;20206;-74
2023/11/10 03:29:29;;;;;;;0.30;0.30;;;7.20;99.90;;;;;;5086073;28;20195;-74
2023/11/10 03:31:58;;;;;;;0.93;0.60;;;7.20;99.90;;;;;;5086943;28;20198;-74
2023/11/10 03:34:28;;;;;;;0.30;0.20;;;7.20;99.90;;;;;;5086820;28;20223;-74
2023/11/10 03:36:56;;;;;;;1.38;0.35;;;7.20;99.90;;;;;;5086545;28;20195;-74
2023/11/10 03:39:24;;;;;;;0.30;0.20;;;7.20;99.90;;;;;;5085973;28;20282;-74
2023/11/10 03:41:51;;;;;;;1.05;0.30;;;7.20;99.90;;;;;;5087097;28;20203;-74
2023/11/10 03:44:20;;;;;;;1.50;0.30;;;7.30;99.90;;;;;;5078730;28;20233;-74
2023/11/10 03:46:47;;;;;;;0.40;0.40;;;7.30;99.90;;;;;;5086791;28;20205;-74
2023/11/10 03:49:15;;;;;;;0.30;0.20;;;7.30;99.90;;;;;;5086024;28;20618;-74
2023/11/10 03:51:47;;;;;;;0.30;0.20;;;7.30;99.90;;;;;;5085860;28;20576;-74
2023/11/10 03:54:14;;;;;;;0.88;0.40;;;7.30;99.90;;;;;;5086721;28;20245;-74
2023/11/10 03:56:41;;;;;;;0.30;0.30;;;7.30;99.90;;;;;;5086694;28;20602;-74
2023/11/10 03:59:09;;;;;;;0.50;0.40;;;7.30;99.90;;;;;;5084642;28;20280;-74
2023/11/10 04:01:37;;;;;;;0.40;0.30;;;7.40;99.90;;;;;;5084546;28;20304;-74
2023/11/10 04:04:04;;;;;;;0.30;0.20;;;7.40;99.90;;;;;;5085587;28;20234;-75
2023/11/10 04:06:31;;;;;;;0.40;0.30;;;7.40;99.90;;;;;;5085267;28;20191;-75
2023/11/10 04:08:59;;;;;;;0.30;0.20;;;7.40;99.90;;;;;;5084248;28;20381;-75
2023/11/10 04:11:27;;;;;;;0.60;0.60;;;7.50;99.90;;;;;;5086044;28;20195;-75
2023/11/10 04:13:54;;;;;;;0.40;0.40;;;7.50;99.90;;;;;;5086150;28;20211;-75
2023/11/10 04:16:22;;;;;;;0.30;0.20;;;7.40;99.90;;;;;;5086377;28;20203;-75
2023/11/10 04:18:49;;;;;;;0.93;0.43;;;7.30;99.90;;;;;;5085125;28;20202;-75
2023/11/10 04:21:17;;;;;;;0.30;0.30;;;7.40;99.90;;;;;;5086716;28;20210;-75
2023/11/10 04:23:43;;;;;;;0.40;0.40;;;7.50;99.90;;;;;;5086249;28;20229;-75
2023/11/10 04:26:13;;;;;;;0.50;0.30;;;7.40;99.90;;;;;;5086126;28;20278;-75
2023/11/10 04:28:41;;;;;;;0.40;0.30;;;7.40;99.90;;;;;;5085508;28;20294;-75
2023/11/10 04:31:09;;;;;;;0.40;0.30;;;7.30;99.90;;;;;;5086175;28;20215;-74
2023/11/10 04:33:37;;;;;;;0.40;0.30;;;7.40;99.90;;;;;;5085993;28;20195;-75
2023/11/10 04:36:06;;;;;;;0.30;0.30;;;7.40;99.90;;;;;;5086245;28;20202;-75
2023/11/10 04:38:33;;;;;;;0.30;0.20;;;7.30;99.90;;;;;;5085780;28;20195;-75
2023/11/10 04:41:01;;;;;;;0.40;0.40;;;7.30;99.90;;;;;;5090211;28;20195;-75
2023/11/10 04:43:30;;;;;;;0.50;0.50;;;7.30;99.90;;;;;;5089798;28;20211;-75
2023/11/10 04:45:56;;;;;;;0.40;0.30;;;7.40;99.90;;;;;;5089253;28;20219;-74
2023/11/10 04:48:23;;;;;;;0.40;0.20;;;7.30;99.90;;;;;;5089413;28;20641;-74
2023/11/10 04:50:51;;;;;;;0.60;0.20;;;7.20;99.90;;;;;;5089621;28;20315;-75
2023/11/10 04:53:17;;;;;;;0.38;0.30;;;7.20;99.90;;;;;;5089607;28;21193;-75
2023/11/10 04:55:44;;;;;;;0.40;0.20;;;7.20;99.90;;;;;;5089854;28;20195;-75
2023/11/10 04:58:11;;;;;;;0.45;0.30;;;7.20;99.90;;;;;;5089007;28;20198;-75
2023/11/10 05:00:39;;;;;;;0.30;0.10;;;7.20;99.90;;;;;;5089453;28;20199;-75
2023/11/10 05:03:06;;;;;;;0.43;0.22;;;7.20;99.90;;;;;;5089698;28;20234;-75
2023/11/10 05:05:34;;;;;;;0.30;0.20;;;7.30;99.90;;;;;;5089536;28;20195;-75
2023/11/10 05:08:02;;;;;;;0.50;0.30;;;7.30;99.90;;;;;;5088988;28;20606;-75
2023/11/10 05:10:30;;;;;;;0.68;0.22;;;7.40;99.90;;;;;;5089081;28;20219;-75
2023/11/10 05:12:57;;;;;;;0.40;0.30;;;7.40;99.90;;;;;;5088962;28;20314;-75
2023/11/10 05:15:24;;;;;;;0.30;0.20;;;7.20;99.90;;;;;;5089414;28;20202;-75
2023/11/10 05:17:52;;;;;;;0.30;0.20;;;7.30;99.90;;;;;;5088699;28;20214;-75
2023/11/10 05:20:19;;;;;;;0.30;0.20;;;7.30;99.90;;;;;;5089334;28;20645;-74
2023/11/10 05:22:46;;;;;;;0.40;0.20;;;7.20;99.90;;;;;;5089083;28;20983;-74
2023/11/10 05:25:13;;;;;;;0.30;0.30;;;7.20;99.90;;;;;;5089088;28;20568;-74
2023/11/10 05:27:40;;;;;;;0.30;0.20;;;7.10;99.90;;;;;;5088547;28;20203;-74
2023/11/10 05:30:09;;;;;;;0.30;0.20;;;7.20;99.90;;;;;;5088844;28;20223;-74
2023/11/10 05:32:35;;;;;;;0.30;0.20;;;7.10;99.90;;;;;;5089131;28;20199;-75
2023/11/10 05:35:04;;;;;;;0.40;0.20;;;7.10;99.90;;;;;;5088918;28;20199;-74
2023/11/10 05:37:32;;;;;;;0.50;0.30;;;7.10;99.90;;;;;;5088421;28;20191;-74
2023/11/10 05:39:59;;;;;;;0.30;0.20;;;7.10;99.90;;;;;;5088648;28;20847;-74
2023/11/10 05:42:26;;;;;;;0.30;0.20;;;7.20;99.90;;;;;;5088920;28;20264;-74
2023/11/10 05:44:53;;;;;;;0.57;0.30;;;7.00;99.90;;;;;;5088485;28;20332;-74
2023/11/10 05:47:20;;;;;;;0.30;0.20;;;7.00;99.90;;;;;;5088316;28;20320;-74
2023/11/10 05:49:46;;;;;;;0.40;0.30;;;7.00;99.90;;;;;;5088645;28;20199;-74
2023/11/10 05:52:15;;;;;;;0.30;0.20;;;6.80;99.90;;;;;;5079372;28;20203;-74
2023/11/10 05:54:41;;;;;;;0.40;0.30;;;6.80;99.90;;;;;;5087528;28;20306;-74
2023/11/10 05:57:08;;;;;;;0.30;0.20;;;6.80;99.90;;;;;;5088131;28;20199;-74
2023/11/10 05:59:35;;;;;;;1.67;0.50;;;6.70;99.90;;;;;;5087819;28;20259;-74
2023/11/10 06:02:02;;;;;;;0.40;0.20;;;6.80;99.90;;;;;;5088758;28;20317;-75
2023/11/10 06:04:29;;;;;;;0.50;0.35;;;6.80;99.90;;;;;;5088257;28;20230;-75
2023/11/10 06:06:56;;;;;;;0.50;0.43;;;6.80;99.90;;;;;;5088287;28;20205;-74
2023/11/10 06:09:25;;;;;;;0.47;0.20;;;6.80;99.90;;;;;;5087105;28;20203;-75
2023/11/10 06:11:51;;;;;;;0.30;0.20;;;6.80;99.90;;;;;;5088098;28;20238;-75
2023/11/10 06:14:18;;;;;;;0.30;0.20;;;6.90;99.90;;;;;;5087649;28;20282;-74
2023/11/10 06:16:46;;;;;;;0.30;0.30;;;6.80;99.90;;;;;;5088333;28;20201;-75
2023/11/10 06:19:12;;;;;;;0.30;0.20;;;6.80;99.90;;;;;;5087504;28;20207;-75
2023/11/10 06:21:39;;;;;;;0.30;0.20;;;7.00;99.90;;;;;;5087640;28;20187;-74
2023/11/10 06:24:08;;;;;;;0.55;0.40;;;7.00;99.90;;;;;;5086821;28;20237;-75
2023/11/10 06:26:36;;;;;;;0.52;0.30;;;6.90;99.90;;;;;;5087776;28;20202;-74
2023/11/10 06:29:03;;;;;;;0.30;0.20;;;7.00;99.90;;;;;;5087493;28;20871;-74
2023/11/10 06:31:30;;;;;;;0.40;0.20;;;7.10;99.90;;;;;;5087735;28;20191;-74
2023/11/10 06:33:57;;;;;;;0.50;0.30;;;7.20;99.90;;;;;;5088203;28;20199;-74
2023/11/10 06:36:24;;;;;;;0.30;0.20;;;7.00;99.90;;;;;;5087122;28;20223;-74
2023/11/10 06:38:51;;;;;;;0.30;0.25;;;7.00;99.90;;;;;;5087033;28;20210;-74
2023/11/10 06:41:18;;;;;;;0.50;0.40;;;7.00;99.90;;;;;;5087637;28;20202;-74
2023/11/10 06:43:46;;;;;;;0.75;0.40;;;7.00;99.90;;;;;;5087634;28;20715;-74
2023/11/10 06:46:20;;;;;;;0.60;0.60;;;7.10;99.90;;;;;;5087435;28;20564;-74
2023/11/10 06:48:46;;;;;;;0.50;0.50;;;7.00;99.90;;;;;;5086178;28;20645;-74
2023/11/10 06:51:14;;;;;;;0.57;0.45;;;7.00;99.90;;;;;;5087483;28;20248;-74
2023/11/10 06:53:41;;;;;;;0.82;0.40;;;7.00;99.90;;;;;;5087590;28;20214;-74
2023/11/10 06:56:09;;;;;;;0.70;0.40;;;7.00;99.90;;;;;;5087114;28;20199;-74
2023/11/10 06:58:36;;;;;;;0.40;0.40;;;6.90;99.90;;;;;;5086811;28;20215;-74
2023/11/10 07:01:05;;;;;;;0.60;0.60;;;6.90;99.90;;;;;;5087204;28;20195;-74
2023/11/10 07:03:32;;;;;;;0.80;0.60;;;7.00;99.90;;;;;;5086574;28;20284;-74
2023/11/10 07:06:00;;;;;;;1.08;0.93;;;7.00;99.90;;;;;;5087206;28;20621;-74
2023/11/10 07:08:27;;;;;;;0.50;0.50;;;7.00;99.90;;;;;;5086501;28;20256;-75
2023/11/10 07:10:58;;;;;;;0.60;0.60;;;7.00;99.90;;;;;;5087316;28;20203;-74
2023/11/10 07:13:26;;;;;;;0.43;0.43;;;7.00;99.90;;;;;;5086686;28;20219;-75
2023/11/10 07:15:54;;;;;;;0.60;0.57;;;6.90;99.90;;;;;;5086607;28;20202;-74
2023/11/10 07:18:22;;;;;;;0.98;0.98;;;6.90;99.90;;;;;;5086589;28;20256;-74
2023/11/10 07:20:49;;;;;;;0.70;0.70;;;6.90;99.90;;;;;;5087191;28;20254;-73
2023/11/10 07:23:16;;;;;;;0.50;0.50;;;6.90;99.90;;;;;;5086772;28;20653;-74
2023/11/10 07:25:42;;;;;;;1.40;0.68;;;6.90;99.90;;;;;;5085508;28;20199;-75
2023/11/10 07:28:10;;;;;;;0.82;0.40;;;6.80;99.90;;;;;;5089231;28;20604;-75
2023/11/10 07:30:39;;;;;;;0.40;0.40;;;6.80;99.90;;;;;;5088189;28;20703;-75
2023/11/10 07:33:08;;;;;;;0.63;0.50;;;6.80;99.90;;;;;;5087110;28;20202;-75
2023/11/10 07:35:37;;;;;;;1.15;0.47;;;6.90;99.90;;;;;;5086514;28;20203;-75
2023/11/10 07:38:04;;;;;;;0.93;0.50;;;6.80;99.90;;;;;;5086214;28;20199;-75
2023/11/10 07:40:31;;;;;;;0.40;0.30;;;6.80;99.90;;;;;;5086501;28;20233;-74
2023/11/10 07:42:58;;;;;;;0.82;0.47;;;6.70;99.90;;;;;;5086024;28;20213;-74
2023/11/10 07:45:25;;;;;;;0.40;0.40;;;6.80;99.90;;;;;;5086871;28;20256;-74
2023/11/10 07:47:52;;;;;;;0.60;0.40;;;6.80;99.90;;;;;;5086036;28;20669;-75
2023/11/10 07:50:21;;;;;;;0.50;0.50;;;6.90;99.90;;;;;;5086846;28;20199;-74
2023/11/10 07:52:49;;;;;;;0.40;0.30;;;7.00;99.90;;;;;;5086966;28;20633;-75
2023/11/10 07:55:17;;;;;;;0.55;0.50;;;6.90;99.90;;;;;;5078161;28;20207;-75
2023/11/10 07:57:44;;;;;;;0.63;0.63;;;6.90;99.90;;;;;;5085779;28;20930;-75
2023/11/10 08:00:13;;;;;;;0.88;0.52;;;7.00;99.90;;;;;;5086424;28;20201;-74
2023/11/10 08:02:40;;;;;;;2.17;0.75;;;7.10;99.90;;;;;;5086521;28;20199;-74
2023/11/10 08:05:07;;;;;;;0.50;0.30;;;7.20;99.90;;;;;;5086204;28;20309;-74
2023/11/10 08:07:34;;;;;;;1.10;0.50;;;7.30;99.90;;;;;;5086154;28;20201;-75
2023/11/10 08:10:04;;;;;;;0.63;0.33;;;7.40;99.90;;;;;;5085797;28;20202;-74
2023/11/10 08:12:31;;;;;;;0.73;0.40;;;7.60;99.90;;;;;;5086265;28;20658;-74
2023/11/10 08:14:58;;;;;;;0.47;0.40;;;7.50;99.90;;;;;;5088840;28;20961;-74
2023/11/10 08:17:25;;;;;;;0.40;0.30;;;7.50;99.90;;;;;;5090018;28;20690;-74
2023/11/10 08:19:52;;;;;;;0.50;0.43;;;7.50;99.90;;;;;;5090326;28;20627;-74
2023/11/10 08:22:19;;;;;;;0.47;0.47;;;7.50;99.90;;;;;;5090258;28;20199;-74
2023/11/10 08:24:45;;;;;;;0.50;0.50;;;7.60;99.90;;;;;;5080275;28;20597;-74
2023/11/10 08:27:13;;;;;;;0.45;0.45;;;7.50;99.90;;;;;;5090247;28;20225;-74
2023/11/10 08:29:40;;;;;;;1.30;0.80;;;7.60;99.90;;;;;;5089435;28;20664;-74
2023/11/10 08:32:08;;;;;;;0.50;0.30;;;7.70;99.90;;;;;;5090074;28;21188;-74
2023/11/10 08:34:34;;;;;;;2.05;0.55;;;7.60;99.90;;;;;;5089759;28;20206;-74
2023/11/10 08:37:01;;;;;;;0.30;0.20;;;7.60;99.90;;;;;;5089601;28;20203;-75
2023/11/10 08:39:29;;;;;;;0.83;0.83;;;7.80;99.90;;;;;;5089599;28;20282;-74
2023/11/10 08:41:56;;;;;;;4.90;1.37;;;7.80;99.90;;;;;;5089755;28;21161;-74
2023/11/10 08:44:26;;;;;;;0.40;0.20;;;7.90;99.90;;;;;;5089666;28;21240;-74
2023/11/10 08:46:53;;;;;;;0.30;0.30;;;7.90;99.90;;;;;;5090161;28;20713;-74
2023/11/10 08:49:20;;;;;;;0.30;0.30;;;7.90;99.90;;;;;;5089138;28;21078;-75
2023/11/10 08:51:47;;;;;;;0.40;0.30;;;7.90;99.90;;;;;;5089191;28;20621;-75
2023/11/10 08:54:14;;;;;;;0.50;0.30;;;8.00;99.90;;;;;;5081538;28;20621;-74
2023/11/10 08:56:41;;;;;;;0.37;0.37;;;8.00;99.90;;;;;;5089586;28;20624;-74
2023/11/10 08:59:09;;;;;;;0.30;0.30;;;8.20;99.90;;;;;;5088962;28;21275;-74
2023/11/10 09:01:37;;;;;;;0.50;0.47;;;8.20;99.90;;;;;;5089580;28;21062;-75
2023/11/10 09:04:04;;;;;;;0.93;0.40;;;8.30;99.90;;;;;;5089284;28;20617;-74
2023/11/10 09:06:32;;;;;;;0.33;0.30;;;8.20;99.90;;;;;;5089517;28;20621;-74
2023/11/10 09:08:58;;;;;;;1.70;0.50;;;8.10;99.90;;;;;;5088942;28;20621;-75
2023/11/10 09:11:25;;;;;;;0.70;0.40;;;8.40;99.90;;;;;;5089305;28;20732;-74
2023/11/10 09:13:52;;;;;;;0.60;0.40;;;8.50;99.90;;;;;;5089047;28;20628;-75
2023/11/10 09:16:19;;;;;;;0.50;0.30;;;8.60;99.90;;;;;;5089161;28;20636;-75
2023/11/10 09:18:47;;;;;;;0.50;0.40;;;8.90;99.90;;;;;;5088086;28;20656;-75
2023/11/10 09:21:14;;;;;;;0.30;0.20;;;9.10;99.90;;;;;;5089434;28;21142;-75
2023/11/10 09:23:42;;;;;;;0.40;0.40;;;9.10;99.90;;;;;;5088254;28;20716;-74
2023/11/10 09:26:09;;;;;;;0.33;0.30;;;9.20;99.90;;;;;;5087714;28;20679;-75
2023/11/10 09:28:37;;;;;;;0.30;0.30;;;9.30;99.90;;;;;;5088554;28;20609;-74
2023/11/10 09:31:05;;;;;;;0.80;0.60;;;9.40;99.90;;;;;;5088945;28;20621;-74
2023/11/10 09:33:31;;;;;;;0.30;0.30;;;9.40;99.90;;;;;;5088160;28;20981;-74
2023/11/10 09:35:59;;;;;;;0.50;0.40;;;9.50;99.90;;;;;;5088843;28;21197;-74
2023/11/10 09:38:27;;;;;;;0.57;0.47;;;9.50;99.90;;;;;;5088528;28;20637;-74
2023/11/10 09:40:54;;;;;;;0.30;0.20;;;9.50;99.90;;;;;;5088975;28;20605;-74
2023/11/10 09:43:24;;;;;;;0.30;0.30;;;9.50;99.90;;;;;;5088734;28;20656;-75
2023/11/10 09:45:52;;;;;;;0.30;0.20;;;9.60;99.90;;;;;;5088006;28;21028;-75
2023/11/10 09:48:20;;;;;;;0.50;0.30;;;9.70;99.90;;;;;;5087946;28;20625;-75
2023/11/10 09:50:50;;;;;;;0.57;0.30;;;9.60;99.90;;;;;;5088875;28;20643;-76
2023/11/10 09:53:19;;;;;;;0.40;0.40;;;9.60;99.90;;;;;;5088699;28;20641;-75
2023/11/10 09:55:46;;;;;;;0.50;0.40;;;9.60;99.90;;;;;;5088939;28;20631;-75
2023/11/10 09:58:15;;;;;;;0.40;0.30;;;9.40;99.90;;;;;;5087624;28;21191;-75
2023/11/10 10:00:43;;;;;;;2.30;0.70;;;9.20;99.90;;;;;;5088180;28;20628;-75
2023/11/10 10:03:12;;;;;;;0.50;0.40;;;9.10;99.90;;;;;;5088498;28;20623;-75
2023/11/10 10:05:39;;;;;;;0.30;0.20;;;8.70;99.90;;;;;;5088438;28;20671;-75
2023/11/10 10:08:06;;;;;;;0.40;0.40;;;8.60;99.90;;;;;;5087713;28;20953;-75
2023/11/10 10:10:38;;;;;;;0.90;0.70;;;8.80;99.90;;;;;;5088653;28;20733;-75
2023/11/10 10:13:06;;;;;;;0.60;0.47;;;8.70;99.90;;;;;;5087517;28;20642;-75
2023/11/10 10:15:33;;;;;;;0.43;0.30;;;8.50;99.90;;;;;;5087991;28;20633;-75
2023/11/10 10:18:08;;;;;;;1.70;0.30;;;8.40;99.90;;;;;;5087768;28;20632;-75
2023/11/10 10:20:35;;;;;;;0.40;0.33;;;8.50;99.90;;;;;;5088111;28;20678;-75
2023/11/10 10:23:02;;;;;;;0.30;0.30;;;8.50;99.90;;;;;;5088475;28;20717;-75
2023/11/10 10:25:29;;;;;;;0.50;0.40;;;8.40;99.90;;;;;;5087138;28;20659;-75
2023/11/10 10:27:57;;;;;;;0.30;0.30;;;8.40;99.90;;;;;;5087383;28;21017;-75
2023/11/10 10:30:25;;;;;;;0.50;0.40;;;8.40;99.90;;;;;;5087993;28;20640;-75
2023/11/10 10:32:52;;;;;;;0.63;0.60;;;8.20;99.90;;;;;;5079578;28;20636;-75
2023/11/10 10:35:19;;;;;;;0.50;0.50;;;8.20;99.90;;;;;;5087677;28;20621;-75
2023/11/10 10:37:47;;;;;;;1.47;0.50;;;8.40;99.90;;;;;;5086844;28;20647;-75
2023/11/10 10:40:15;;;;;;;2.13;0.93;;;8.20;99.90;;;;;;5087517;28;20622;-75
2023/11/10 10:42:44;;;;;;;0.73;0.47;;;8.30;99.90;;;;;;5087629;28;20650;-75
2023/11/10 10:45:12;;;;;;;0.60;0.50;;;8.50;99.90;;;;;;5087367;28;20688;-75
2023/11/10 10:47:41;;;;;;;0.40;0.30;;;8.70;99.90;;;;;;5086832;28;20621;-75
2023/11/10 10:50:10;;;;;;;1.90;0.90;;;8.70;99.90;;;;;;5079046;28;20653;-75
2023/11/10 10:52:36;;;;;;;0.40;0.40;;;8.60;99.90;;;;;;5087027;28;20724;-75
2023/11/10 10:55:05;;;;;;;0.70;0.40;;;8.40;99.90;;;;;;5087449;28;20660;-74
2023/11/10 10:57:33;;;;;;;0.40;0.30;;;8.40;99.90;;;;;;5086650;28;20630;-74
2023/11/10 11:00:00;;;;;;;1.57;0.50;;;8.40;99.90;;;;;;5087639;28;20632;-74
2023/11/10 11:02:30;;;;;;;0.63;0.37;;;8.40;99.90;;;;;;5087377;28;20629;-74
2023/11/10 11:05:04;;;;;;;0.50;0.40;;;8.40;99.90;;;;;;5087415;28;20656;-74
2023/11/10 11:08:03;;;;;;;1.57;0.47;;;8.40;99.90;;;;;;5079499;28;20625;-76
2023/11/10 11:11:16;;;;;;;0.40;0.30;;;8.50;99.90;;;;;;5078960;28;20629;-75
2023/11/10 11:14:00;;;;;;;1.07;0.50;;;8.60;99.90;;;;;;5080322;28;20665;-75
2023/11/10 11:16:52;;;;;;;0.40;0.30;;;8.70;99.90;;;;;;5086906;28;20685;-74
2023/11/10 11:19:27;;;;;;;0.40;0.37;;;8.70;99.90;;;;;;5086207;28;20661;-75
2023/11/10 11:21:54;;;;;;;0.30;0.30;;;8.80;99.90;;;;;;5086729;28;20623;-74
2023/11/10 11:24:22;;;;;;;0.40;0.40;;;8.80;99.90;;;;;;5086924;28;20621;-74
2023/11/10 11:26:58;;;;;;;0.47;0.47;;;8.70;99.90;;;;;;5086900;28;21102;-76
2023/11/10 11:29:26;;;;;;;0.40;0.40;;;8.70;99.90;;;;;;5086057;28;20621;-74
2023/11/10 11:31:53;;;;;;;0.60;0.40;;;8.60;99.30;;;;;;5086710;28;20632;-74
2023/11/10 11:34:21;;;;;;;0.40;0.30;;;8.60;99.60;;;;;;5088611;28;21180;-74
2023/11/10 11:36:50;;;;;;;0.60;0.50;;;8.50;99.60;;;;;;5091414;28;20721;-74
2023/11/10 11:39:20;;;;;;;0.60;0.60;;;8.60;99.40;;;;;;5087659;28;20622;-75
2023/11/10 11:41:49;;;;;;;0.47;0.30;;;8.60;99.70;;;;;;5087067;28;20651;-75
2023/11/10 11:44:26;;;;;;;0.73;0.50;;;8.70;99.90;;;;;;5086611;28;20621;-75
2023/11/10 11:47:06;;;;;;;0.40;0.37;;;8.80;99.70;;;;;;5086251;28;20763;-74
2023/11/10 11:49:32;;;;;;;0.80;0.37;;;8.90;99.90;;;;;;5085763;28;20621;-74
2023/11/10 11:52:03;;;;;;;8.10;5.50;;;8.80;99.30;;;;;;5086667;28;20625;-75
2023/11/10 11:54:29;;;;;;;10.47;7.20;;;8.90;99.50;;;;;;5086702;28;20613;-75
2023/11/10 11:56:57;;;;;;;3.47;2.00;;;8.90;99.60;;;;;;5086407;28;21080;-74
2023/11/10 11:59:25;;;;;;;0.50;0.50;;;8.80;98.80;;;;;;5085727;28;20632;-74
2023/11/10 12:01:52;;;;;;;0.80;0.73;;;8.60;98.10;;;;;;5086864;28;20629;-74
2023/11/10 12:04:19;;;;;;;0.60;0.60;;;8.70;98.80;;;;;;5086449;28;20629;-74
2023/11/10 12:06:45;;;;;;;0.40;0.30;;;8.80;99.20;;;;;;5086443;28;20788;-74
2023/11/10 12:09:14;;;;;;;0.97;0.50;;;8.80;98.30;;;;;;5085782;28;21191;-75
2023/11/10 12:11:42;;;;;;;0.47;0.27;;;8.80;98.90;;;;;;5085762;28;20721;-74
2023/11/10 12:14:10;;;;;;;0.50;0.50;;;8.70;98.40;;;;;;5086399;28;20637;-74
2023/11/10 12:16:37;;;;;;;0.30;0.30;;;8.60;97.90;;;;;;5086467;28;20633;-75
2023/11/10 12:19:05;;;;;;;1.13;0.63;;;8.70;98.20;;;;;;5085723;28;20629;-74
2023/11/10 12:21:32;;;;;;;0.40;0.40;;;8.70;98.30;;;;;;5086569;28;20625;-75
2023/11/10 12:24:02;;;;;;;0.40;0.30;;;9.00;99.00;;;;;;5086278;28;20628;-75
2023/11/10 12:26:33;;;;;;;0.47;0.47;;;9.10;98.90;;;;;;5085780;28;21268;-75
2023/11/10 12:29:03;;;;;;;0.60;0.40;;;9.20;98.60;;;;;;5086010;28;20617;-75
2023/11/10 12:31:32;;;;;;;0.33;0.30;;;9.20;98.50;;;;;;5086392;28;20633;-76
2023/11/10 12:34:00;;;;;;;1.23;0.33;;;9.30;98.20;;;;;;5086565;28;20625;-75
2023/11/10 12:36:31;;;;;;;0.50;0.50;;;9.20;98.00;;;;;;5086154;28;20994;-75
2023/11/10 12:38:58;;;;;;;1.23;0.70;;;9.20;98.00;;;;;;5077565;28;20645;-75
2023/11/10 12:41:24;;;;;;;0.50;0.50;;;9.30;98.30;;;;;;5086363;28;20969;-75
2023/11/10 12:43:54;;;;;;;0.63;0.40;;;9.40;97.30;;;;;;5086039;28;21275;-75
2023/11/10 12:46:21;;;;;;;0.40;0.27;;;9.40;97.80;;;;;;5086052;28;20722;-75
2023/11/10 12:48:51;;;;;;;0.40;0.40;;;9.30;97.10;;;;;;5090193;28;21253;-75
2023/11/10 12:51:22;;;;;;;0.40;0.40;;;9.50;97.00;;;;;;5085601;28;20637;-75
2023/11/10 12:53:49;;;;;;;0.70;0.50;;;9.50;97.20;;;;;;5086290;28;20633;-75
2023/11/10 12:56:16;;;;;;;0.80;0.50;;;9.60;96.70;;;;;;5085807;28;21184;-75
2023/11/10 12:58:43;;;;;;;1.13;0.63;;;9.70;96.60;;;;;;5085694;28;20625;-75
2023/11/10 13:01:11;;;;;;;0.60;0.47;;;9.60;96.70;;;;;;5088377;28;20615;-75